Nederlandse vliegveldverwachtingen (TAF)

Luchtvaartmeteorologische informatie voor operationeel gebruik en vluchtvoorbereiding is beschikbaar op www.luchtvaartmeteo.nl.

ZCZC
FT251100 EHAM     AMSTERDAM/SCHIPHOL   NLD   -3 m.
TAF COR EHAM 251114Z 2512/2618 16010KT CAVOK
    BECMG 2513/2515 29010KT
    BECMG 2521/2524 33007KT
    BECMG 2600/2603 4500 BR SCT004 BKN007
    BECMG 2607/2610 36012KT CAVOK=

ZCZC
FT251100 EHBK     MAASTRICHT/MAASTRICHT-AACHEN   NLD   114 m.
TAF EHBK 251104Z 2512/2618 20010KT CAVOK
    BECMG 2516/2519 27007KT=

ZCZC
FT251100 EHGG     GRONINGEN/EELDE   NLD   5 m.
TAF EHGG 251104Z 2512/2618 15012KT CAVOK
    BECMG 2512/2515 18010KT
    BECMG 2516/2519 27008KT
    PROB30 2604/2607 4000 BR BKN008
    BECMG 2606/2609 34012KT=

ZCZC
FT251100 EHRD     ROTTERDAM/THE HAGUE AIRPORT   NLD   -5 m.
TAF COR EHRD 251114Z 2512/2618 16010KT CAVOK
    BECMG 2513/2515 29010KT
    BECMG 2521/2524 33007KT
    BECMG 2600/2603 4500 BR SCT004 BKN007
    BECMG 2607/2610 36012KT CAVOK=

ZCZC
FT251100 EHEH     EINDHOVEN/EINDHOVEN   NLD   22 m.
TAF EHEH 251111Z 2512/2618 17006KT CAVOK
    BECMG 2515/2518 27005KT
    BECMG 2603/2606 33005KT
    PROB30 TEMPO 2604/2608 BKN007
    BECMG 2614/2616 01010KT=

ZCZC
FC251300 EHGR     GILZE-RIJEN/GILZE-RIJEN   NLD   14 m.
TAF EHGR 251300Z NIL=

ZCZC
FC251300 EHKD     DE KOOY/DE KOOY   NLD   1 m.
TAF EHKD 251222Z 2513/2601 17008KT CAVOK
    BECMG 2513/2516 30005KT
    BECMG 2521/2523 32010KT
    PROB40 2522/2601 BKN004=

ZCZC
FC251300 EHLW     LEEUWARDEN/LEEUWARDEN   NLD   1 m.
TAF EHLW 251216Z 2513/2601 14009KT CAVOK
    BECMG 2513/2516 21007KT
    BECMG 2522/2601 30005KT=

ZCZC
FC251300 EHVK     VOLKEL/VOLKEL   NLD   21 m.
TAF EHVK 251237Z 2513/2601 16007KT CAVOK
    BECMG 2514/2517 26007KT=

ZCZC
FC251300 EHWO     WOENSDRECHT/WOENSDRECHT   NLD   19 m.
TAF EHWO 251300Z NIL=

25/06/2019 15.15 uur LT